オークランド の空港の天気 - METARとTAF

オークランド国際空港 ( NZAA / AKL ) - ニュージーランド オークランド|オークランド
飛行場実況気象(Metar)
観測時間05/26 11:00 NZST (05/25 23:00 UTC)
風向・風速南南西 3m/s
視程10km以上
天気現象
全天の8割程度の雲 雲底高度 240m
全天の8割程度の雲 雲底高度 820m
気温16℃
湿度94%
気圧1017hPa
METARNZAA 252300Z AUTO 20006KT 9999 BKN008/// BKN027/// 16/15 Q1017 BECMG SCT008
過去の天気等 Google飛行場航空写真 Wunderground天気予報

過去48時間のMETAR

飛行場予報(TAF)
発表時間: 5/26 05:19 NZST (5/25 17:19 UTC)
予報対象時間: 26日6時 NZST ~ 27日6時 NZST
風向・風速南西 3m/s
視程10km以上
天気現象弱いしゅう雨
全天の8割程度の雲 雲底高度 370m
26日6時 NZST ~ 26日8時 NZST に一時的に
視程6000m
天気現象しゅう雨
26日8時 NZST ~ 26日10時 NZST に徐々に
全天の4割程度の雲 雲底高度 370m
全天の8割程度の雲 雲底高度 550m
26日18時 NZST ~ 26日20時 NZST に徐々に
風向・風速東北東 5m/s
26日20時 NZST ~ 27日6時 NZST に一時的に
視程4000m
天気現象しゅう雨
全天の8割程度の雲 雲底高度 240m
TAF NZAA 251719Z 2518/2618 22005KT 9999 -SHRA BKN012
TEMPO 2518/2520 6000 SHRA
BECMG 2520/2522 SCT012 BKN018
BECMG 2606/2608 07010KT
TEMPO 2608/2618 4000 SHRA BKN008